weather

Current weather and weather forecast of LSZH


METAR

LSZH 200520Z VRB02KT CAVOK 04/02 Q1026 NOSIG
AirportLSZH
AirportnameZurich
TimeFriday, September 20th, 05:20 UTC
Windvaries at 2kt
Temperature4°C/39°F
Dewpoint2°C/36°F
RelativeHumidity87%
Altimeter1026mb/30.3inhg
Trendno significant changes expected
© decoder by M.Welten

TAF

TAF LSZH 200225Z 2003/2109 33005KT CAVOK TX18/2015Z TN05/2005Z TN06/2105Z BECMG 2007/2010 05009KT BECMG 2017/2020 31004KT
ForecasttypeTAF
AirportLSZH
AirportnameZurich
TimeFriday, September 20th, 02:25 UTC
Forecast
Validity20th 03:00 UTC - 21st 09:00 UTC
WindNNW(330°) at 5kt
Temperaturesmax-temperature of 18°C/64°F at 15:00 UTC on the 20th.
min-temperature of 5°C/41°F at 05:00 UTC on the 20th.
min-temperature of 6°C/43°F at 05:00 UTC on the 21st.
 
Typebecoming
Validity20th 07:00 UTC - 20th 10:00 UTC
WindNE(050°) at 9kt
 
Typebecoming
Validity20th 17:00 UTC - 20th 20:00 UTC
WindNW(310°) at 4kt
© decoder by M.Welten

 

online atc

  • no controllers are online

online pilots

  • no pilots are online